Lavaca Bay — WDF2105 — position and weather

sailwx.info

Track history (hours):
 
Tides and Currents Weather Stations Pressure Air Temp Water Temp Dewpoint Dewpoint Depression Visibility Wind Speed Wind Dir Waves Ship Positions

Lavaca Bay

Owner: Higman Barge Lines, Inc, Orange, TX. More information available from US FCC via Universal Licensing System and Coast Guard Vessel Documentation Center.

Last reported at 2016-Apr-23 00:10 UTC. Time now 2016-Apr-30 18:51 UTC.
Position N 29°57' W 090°14'.

Length 24 m; draft 3 m.

Type: Towing. MMSI: 367424940.

Date/timePositionNaut miles runAvg speedWind from/ knotsBaromVisibWave heightAir tempDewpointWater temp
2016-Apr-23 00:10N 29°57' W 090°14'3 4.2
2016-Apr-22 23:33N 29°56' W 090°12'3 3.0
2016-Apr-22 22:34N 29°56' W 090°08'3 3.4
2016-Apr-22 21:34N 29°55' W 090°05'3 3.1
2016-Apr-22 20:33N 29°57' W 090°02'3 2.6
2016-Apr-22 19:34N 29°56' W 089°59'0 0.0
2016-Apr-22 18:34N 29°56' W 089°59'0 0.0
2016-Apr-22 17:34N 29°56' W 089°59'0 0.0
2016-Apr-22 16:34N 29°56' W 089°59'0 0.0
2016-Apr-22 15:33N 29°56' W 089°59'0 0.0
2016-Apr-22 14:34N 29°56' W 089°59'0 0.0
2016-Apr-22 13:33N 29°56' W 089°59'0 0.0
2016-Apr-22 12:33N 29°56' W 089°59'0 0.0
2016-Apr-22 11:33N 29°56' W 089°59'0 0.0
2016-Apr-22 10:34N 29°56' W 089°59'0 0.0
2016-Apr-22 09:34N 29°56' W 089°59'0 0.0
2016-Apr-22 08:34N 29°56' W 089°59'0 0.0
2016-Apr-22 07:34N 29°56' W 089°59'0 0.0
2016-Apr-22 06:34N 29°56' W 089°59'0 0.0
2016-Apr-22 05:33N 29°56' W 089°59'0 0.0
2016-Apr-22 04:33N 29°56' W 089°59'0 0.0
2016-Apr-22 03:33N 29°56' W 089°59'0 0.0
2016-Apr-22 02:34N 29°56' W 089°59'0 0.0
2016-Apr-22 01:34N 29°56' W 089°59'0 0.0
2016-Apr-22 00:34N 29°56' W 089°59'0 0.0
2016-Apr-21 23:34N 29°56' W 089°59'0 0.0
2016-Apr-21 22:34N 29°56' W 089°59'0 0.0
2016-Apr-21 21:34N 29°56' W 089°59'0 0.0
2016-Apr-21 20:34N 29°56' W 089°59'0 0.0
2016-Apr-21 19:33N 29°56' W 089°59'0 0.0
2016-Apr-21 18:34N 29°56' W 089°59'0 0.0
2016-Apr-21 17:33N 29°56' W 089°59'0 0.0
2016-Apr-21 16:34N 29°56' W 089°59'0 0.0
2016-Apr-21 15:34N 29°56' W 089°59'3 2.9
2016-Apr-21 14:34N 29°58' W 090°02'2 2.1
2016-Apr-21 13:34N 29°60' W 090°01'0 0.0
2016-Apr-21 12:34N 29°60' W 090°01'0 0.0
2016-Apr-21 11:34N 29°60' W 090°01'0 0.0
2016-Apr-21 10:34N 29°60' W 090°01'0 0.0
2016-Apr-21 09:33N 29°60' W 090°01'0 0.0
2016-Apr-21 08:34N 29°60' W 090°01'0 0.0
2016-Apr-21 07:34N 29°60' W 090°01'0 0.0
2016-Apr-21 06:34N 29°60' W 090°01'0 0.0
2016-Apr-21 05:34N 29°60' W 090°01'0 0.0
2016-Apr-21 04:34N 29°60' W 090°01'0 0.0
2016-Apr-21 03:34N 29°60' W 090°01'0 0.0
2016-Apr-21 02:34N 29°60' W 090°01'0 0.0
2016-Apr-21 01:34N 29°60' W 090°01'0 0.0
2016-Apr-21 00:34N 29°60' W 090°01'0 0.0
2016-Apr-20 23:34N 29°60' W 090°01'0 0.0
2016-Apr-20 22:34N 29°60' W 090°01'0 0.0
2016-Apr-20 21:34N 29°60' W 090°01'0 0.0
2016-Apr-20 20:33N 29°60' W 090°01'0 0.0
2016-Apr-20 19:34N 29°60' W 090°01'0 0.0
2016-Apr-20 18:34N 29°60' W 090°01'0 0.0
2016-Apr-20 17:34N 29°60' W 090°01'0 0.0
2016-Apr-20 16:34N 29°60' W 090°01'0 0.0
2016-Apr-20 15:33N 29°60' W 090°01'0 0.0
2016-Apr-20 14:34N 29°60' W 090°01'0 0.0
2016-Apr-20 13:34N 29°60' W 090°01'0 0.5
2016-Apr-20 12:34N 29°60' W 090°00'1 0.8
2016-Apr-20 11:33N 29°60' W 089°59'0 0.0
2016-Apr-20 10:34N 29°60' W 089°59'0 0.0
2016-Apr-20 09:33N 29°60' W 089°59'4 3.9
2016-Apr-20 08:33N 30°01' W 089°55'  
Track history (hours):
 
Tides and Currents Weather Stations Pressure Air Temp Water Temp Dewpoint Dewpoint Depression Visibility Wind Speed Wind Dir Waves Ship Positions

Lavaca Bay

Owner: Higman Barge Lines, Inc, Orange, TX. More information available from US FCC via Universal Licensing System and Coast Guard Vessel Documentation Center.

Last reported at 2016-Apr-23 00:10 UTC. Time now 2016-Apr-30 18:51 UTC.
Position N 29°57' W 090°14'.

Length 24 m; draft 3 m.

Type: Towing. MMSI: 367424940.

Date/timePositionNaut miles runAvg speedWind from/ knotsBaromVisibWave heightAir tempDewpointWater temp
2016-Apr-23 00:10N 29°57' W 090°14'3 4.2
2016-Apr-22 23:33N 29°56' W 090°12'3 3.0
2016-Apr-22 22:34N 29°56' W 090°08'3 3.4
2016-Apr-22 21:34N 29°55' W 090°05'3 3.1
2016-Apr-22 20:33N 29°57' W 090°02'3 2.6
2016-Apr-22 19:34N 29°56' W 089°59'0 0.0
2016-Apr-22 18:34N 29°56' W 089°59'0 0.0
2016-Apr-22 17:34N 29°56' W 089°59'0 0.0
2016-Apr-22 16:34N 29°56' W 089°59'0 0.0
2016-Apr-22 15:33N 29°56' W 089°59'0 0.0
2016-Apr-22 14:34N 29°56' W 089°59'0 0.0
2016-Apr-22 13:33N 29°56' W 089°59'0 0.0
2016-Apr-22 12:33N 29°56' W 089°59'0 0.0
2016-Apr-22 11:33N 29°56' W 089°59'0 0.0
2016-Apr-22 10:34N 29°56' W 089°59'0 0.0
2016-Apr-22 09:34N 29°56' W 089°59'0 0.0
2016-Apr-22 08:34N 29°56' W 089°59'0 0.0
2016-Apr-22 07:34N 29°56' W 089°59'0 0.0
2016-Apr-22 06:34N 29°56' W 089°59'0 0.0
2016-Apr-22 05:33N 29°56' W 089°59'0 0.0
2016-Apr-22 04:33N 29°56' W 089°59'0 0.0
2016-Apr-22 03:33N 29°56' W 089°59'0 0.0
2016-Apr-22 02:34N 29°56' W 089°59'0 0.0
2016-Apr-22 01:34N 29°56' W 089°59'0 0.0
2016-Apr-22 00:34N 29°56' W 089°59'0 0.0
2016-Apr-21 23:34N 29°56' W 089°59'0 0.0
2016-Apr-21 22:34N 29°56' W 089°59'0 0.0
2016-Apr-21 21:34N 29°56' W 089°59'0 0.0
2016-Apr-21 20:34N 29°56' W 089°59'0 0.0
2016-Apr-21 19:33N 29°56' W 089°59'0 0.0
2016-Apr-21 18:34N 29°56' W 089°59'0 0.0
2016-Apr-21 17:33N 29°56' W 089°59'0 0.0
2016-Apr-21 16:34N 29°56' W 089°59'0 0.0
2016-Apr-21 15:34N 29°56' W 089°59'3 2.9
2016-Apr-21 14:34N 29°58' W 090°02'2 2.1
2016-Apr-21 13:34N 29°60' W 090°01'0 0.0
2016-Apr-21 12:34N 29°60' W 090°01'0 0.0
2016-Apr-21 11:34N 29°60' W 090°01'0 0.0
2016-Apr-21 10:34N 29°60' W 090°01'0 0.0
2016-Apr-21 09:33N 29°60' W 090°01'0 0.0
2016-Apr-21 08:34N 29°60' W 090°01'0 0.0
2016-Apr-21 07:34N 29°60' W 090°01'0 0.0
2016-Apr-21 06:34N 29°60' W 090°01'0 0.0
2016-Apr-21 05:34N 29°60' W 090°01'0 0.0
2016-Apr-21 04:34N 29°60' W 090°01'0 0.0
2016-Apr-21 03:34N 29°60' W 090°01'0 0.0
2016-Apr-21 02:34N 29°60' W 090°01'0 0.0
2016-Apr-21 01:34N 29°60' W 090°01'0 0.0
2016-Apr-21 00:34N 29°60' W 090°01'0 0.0
2016-Apr-20 23:34N 29°60' W 090°01'0 0.0
2016-Apr-20 22:34N 29°60' W 090°01'0 0.0
2016-Apr-20 21:34N 29°60' W 090°01'0 0.0
2016-Apr-20 20:33N 29°60' W 090°01'0 0.0
2016-Apr-20 19:34N 29°60' W 090°01'0 0.0
2016-Apr-20 18:34N 29°60' W 090°01'0 0.0
2016-Apr-20 17:34N 29°60' W 090°01'0 0.0
2016-Apr-20 16:34N 29°60' W 090°01'0 0.0
2016-Apr-20 15:33N 29°60' W 090°01'0 0.0
2016-Apr-20 14:34N 29°60' W 090°01'0 0.0
2016-Apr-20 13:34N 29°60' W 090°01'0 0.5
2016-Apr-20 12:34N 29°60' W 090°00'1 0.8
2016-Apr-20 11:33N 29°60' W 089°59'0 0.0
2016-Apr-20 10:34N 29°60' W 089°59'0 0.0
2016-Apr-20 09:33N 29°60' W 089°59'4 3.9
2016-Apr-20 08:33N 30°01' W 089°55'  

Dump ship's entire track history